Time;durP1;ratioP1;P1;durP2;ratioP2;P2;SDS_P1;SDS_P2;PMS_P1;PMS_P2;Temp;Humidity;BMP_temperature;BMP_pressure;BME280_temperature;BME280_humidity;BME280_pressure;Samples;Min_cycle;Max_cycle;Signal;HPM_P1;HPM_P2
2023/12/20 00:00:43;;;;;;;8.82;2.15;;;;;;;;;;4823105;29;20049;-96
2023/12/20 00:03:24;;;;;;;;;;;;;;;;;;;;;
2023/12/20 00:05:59;;;;;;;20.10;2.97;;;;;;;;;;4795636;29;20062;-93
2023/12/20 00:08:27;;;;;;;5.53;2.20;;;;;;;;;;4778351;29;20058;-95
2023/12/20 00:10:53;;;;;;;9.00;3.28;;;;;;;;;;4808698;29;20054;-95
2023/12/20 00:13:44;;;;;;;13.73;3.95;;;;;;;;;;4795391;29;20054;-95
2023/12/20 00:16:24;;;;;;;13.23;3.03;;;;;;;;;;4794394;29;20062;-93
2023/12/20 00:18:54;;;;;;;8.00;3.47;;;;;;;;;;4795039;29;20054;-96
2023/12/20 00:21:33;;;;;;;15.68;4.63;;;;;;;;;;4802224;29;20061;-96
2023/12/20 00:24:13;;;;;;;10.85;2.40;;;;;;;;;;4777686;29;20103;-96
2023/12/20 00:27:05;;;;;;;12.10;2.72;;;;;;;;;;4793886;29;20127;-95
2023/12/20 00:29:31;;;;;;;13.32;2.40;;;;;;;;;;4780855;29;20093;-96
2023/12/20 00:32:05;;;;;;;6.95;2.17;;;;;;;;;;4794817;29;20066;-96
2023/12/20 00:34:46;;;;;;;15.55;2.38;;;;;;;;;;4793998;29;20118;-96
2023/12/20 00:39:58;;;;;;;18.15;2.75;;;;;;;;;;4781863;29;20055;-96
2023/12/20 00:42:27;;;;;;;14.18;2.55;;;;;;;;;;4776025;29;20053;-96
2023/12/20 00:44:58;;;;;;;13.30;2.63;;;;;;;;;;4790733;29;20054;-96
2023/12/20 00:47:25;;;;;;;8.80;2.55;;;;;;;;;;4793593;29;20058;-95
2023/12/20 00:50:03;;;;;;;10.52;2.88;;;;;;;;;;4793987;29;20153;-96
2023/12/20 00:52:34;;;;;;;10.00;2.50;;;;;;;;;;4793697;29;20050;-96
2023/12/20 00:55:09;;;;;;;12.77;2.50;;;;;;;;;;4794359;29;20054;-96
2023/12/20 00:57:40;;;;;;;9.57;2.42;;;;;;;;;;4793601;29;20050;-95
2023/12/20 01:00:24;;;;;;;9.63;2.97;;;;;;;;;;4794237;29;20058;-96
2023/12/20 01:03:06;;;;;;;8.10;2.22;;;;;;;;;;4794008;29;20584;-96
2023/12/20 01:05:42;;;;;;;9.23;3.22;;;;;;;;;;4779045;29;20127;-96
2023/12/20 01:08:08;;;;;;;6.10;2.78;;;;;;;;;;4792875;29;20566;-96
2023/12/20 01:10:43;;;;;;;11.98;3.75;;;;;;;;;;4794423;29;20517;-96
2023/12/20 01:13:12;;;;;;;15.05;2.60;;;;;;;;;;4793501;29;20112;-96
2023/12/20 01:28:03;;;;;;;15.43;3.25;;;;;;;;;;4700270;30;20059;-95
2023/12/20 01:30:29;;;;;;;13.52;3.42;;;;;;;;;;4740232;30;20132;-96
2023/12/20 01:33:18;;;;;;;17.25;3.50;;;;;;;;;;4745851;30;20670;-95
2023/12/20 01:36:20;;;;;;;;;;;;;;;;;;;;;
2023/12/20 01:39:04;;;;;;;10.93;3.15;;;;;;;;;;4722341;30;20083;-95
2023/12/20 01:41:49;;;;;;;;;;;;;;;;;;;;;
2023/12/20 01:44:26;;;;;;;8.95;2.58;;;;;;;;;;4739612;30;20569;-96
2023/12/20 01:47:10;;;;;;;8.95;2.65;;;;;;;;;;4786927;29;20054;-95
2023/12/20 01:53:03;;;;;;;11.00;2.42;;;;;;;;;;4775818;29;20511;-95
2023/12/20 01:56:35;;;;;;;16.15;2.95;;;;;;;;;;4789904;29;20055;-96
2023/12/20 01:59:57;;;;;;;;;;;;;;;;;;;;;
2023/12/20 02:10:39;;;;;;;13.90;2.95;;;;;;;;;;4672769;30;20093;-96
2023/12/20 02:13:47;;;;;;;;;;;;;;;;;;;;;
2023/12/20 02:41:23;;;;;;;;;;;;;;;;;;;;;
2023/12/20 02:52:16;;;;;;;13.00;3.67;;;;;;;;;;4686173;30;20083;-96
2023/12/20 03:12:37;;;;;;;;;;;;;;;;;;;;;
2023/12/20 03:15:06;;;;;;;17.63;4.95;;;;;;;;;;4646663;30;20108;-96
2023/12/20 03:21:26;;;;;;;;;;;;;;;;;;;;;
2023/12/20 03:24:39;;;;;;;;;;;;;;;;;;;;;
2023/12/20 03:27:35;;;;;;;;;;;;;;;;;;;;;
2023/12/20 03:30:15;;;;;;;20.92;3.72;;;;;;;;;;4760453;30;20062;-96
2023/12/20 03:32:53;;;;;;;13.50;3.70;;;;;;;;;;4772413;30;20048;-95
2023/12/20 03:35:24;;;;;;;15.68;4.18;;;;;;;;;;4756020;30;20529;-96
2023/12/20 03:38:29;;;;;;;;;;;;;;;;;;;;;
2023/12/20 03:58:07;;;;;;;17.13;3.85;;;;;;;;;;4767211;29;20055;-95
2023/12/20 04:00:54;;;;;;;19.42;4.40;;;;;;;;;;4802498;29;20057;-95
2023/12/20 04:03:29;;;;;;;20.20;4.15;;;;;;;;;;4777737;29;20073;-95
2023/12/20 04:06:27;;;;;;;16.95;3.97;;;;;;;;;;4777120;29;20061;-96
2023/12/20 04:09:12;;;;;;;24.63;5.57;;;;;;;;;;4779071;29;20062;-96
2023/12/20 04:11:56;;;;;;;23.25;5.88;;;;;;;;;;4779613;29;20129;-96
2023/12/20 04:14:28;;;;;;;28.20;4.55;;;;;;;;;;4782586;29;20111;-95
2023/12/20 04:16:57;;;;;;;19.70;5.22;;;;;;;;;;4794311;29;20053;-95
2023/12/20 04:19:45;;;;;;;;;;;;;;;;;;;;;
2023/12/20 04:22:12;;;;;;;16.45;4.25;;;;;;;;;;4808692;29;20065;-96
2023/12/20 04:24:43;;;;;;;16.23;3.95;;;;;;;;;;4794706;29;20050;-95
2023/12/20 04:30:32;;;;;;;19.95;4.47;;;;;;;;;;4727369;30;20582;-95
2023/12/20 04:33:02;;;;;;;19.05;4.57;;;;;;;;;;4719851;30;20055;-96
2023/12/20 04:41:49;;;;;;;;;;;;;;;;;;;;;
2023/12/20 04:44:31;;;;;;;;;;;;;;;;;;;;;
2023/12/20 04:50:07;;;;;;;23.05;4.70;;;;;;;;;;4797979;29;20061;-95
2023/12/20 05:00:00;;;;;;;;;;;;;;;;;;;;;
2023/12/20 05:02:18;;;;;;;23.08;5.10;;;;;;;;;;4787605;29;20129;-93
2023/12/20 05:04:44;;;;;;;20.33;4.00;;;;;;;;;;4760672;29;20102;-95
2023/12/20 05:11:13;;;;;;;;;;;;;;;;;;;;;
2023/12/20 05:17:15;;;;;;;22.67;5.32;;;;;;;;;;4829917;24;20053;-93
2023/12/20 05:19:42;;;;;;;19.48;4.85;;;;;;;;;;4830548;29;20058;-96
2023/12/20 05:22:08;;;;;;;11.98;4.07;;;;;;;;;;4815270;29;20058;-95
2023/12/20 05:24:35;;;;;;;25.83;5.20;;;;;;;;;;4862684;29;20105;-95
2023/12/20 05:27:01;;;;;;;28.38;5.45;;;;;;;;;;4832384;29;20080;-93
2023/12/20 05:29:32;;;;;;;19.25;4.65;;;;;;;;;;4864627;29;20082;-96
2023/12/20 05:31:59;;;;;;;13.27;4.05;;;;;;;;;;4845143;24;20078;-95
2023/12/20 05:34:25;;;;;;;25.52;4.68;;;;;;;;;;4793511;29;20118;-94
2023/12/20 05:36:51;;;;;;;20.00;4.43;;;;;;;;;;4794718;29;20118;-94
2023/12/20 05:39:17;;;;;;;33.17;6.03;;;;;;;;;;4792401;29;20078;-94
2023/12/20 05:41:43;;;;;;;17.35;4.22;;;;;;;;;;4775334;29;20097;-95
2023/12/20 05:44:14;;;;;;;24.33;4.85;;;;;;;;;;4774179;30;20096;-96
2023/12/20 05:46:42;;;;;;;15.80;3.92;;;;;;;;;;4774802;30;20142;-96
2023/12/20 05:49:10;;;;;;;32.08;7.07;;;;;;;;;;4765227;29;20564;-94
2023/12/20 05:51:36;;;;;;;10.90;5.07;;;;;;;;;;4761589;29;20051;-96
2023/12/20 05:57:45;;;;;;;20.58;4.85;;;;;;;;;;4743572;30;20067;-95
2023/12/20 06:00:30;;;;;;;18.60;4.25;;;;;;;;;;4722554;30;20057;-95
2023/12/20 06:03:45;;;;;;;15.18;5.40;;;;;;;;;;4774676;29;20093;-96
2023/12/20 06:06:28;;;;;;;16.75;5.30;;;;;;;;;;4765953;29;20065;-95
2023/12/20 06:09:06;;;;;;;24.15;5.53;;;;;;;;;;4781192;29;20047;-96
2023/12/20 06:11:41;;;;;;;29.27;5.25;;;;;;;;;;4781726;29;20055;-95
2023/12/20 06:14:36;;;;;;;19.85;4.80;;;;;;;;;;4800615;29;20077;-96
2023/12/20 06:17:14;;;;;;;12.95;5.47;;;;;;;;;;4779258;29;20046;-96
2023/12/20 06:20:34;;;;;;;16.42;4.38;;;;;;;;;;4805576;29;20058;-94
2023/12/20 06:23:12;;;;;;;17.00;4.55;;;;;;;;;;4755249;29;20124;-95
2023/12/20 06:25:59;;;;;;;18.83;4.13;;;;;;;;;;4787015;29;20141;-96
2023/12/20 06:28:27;;;;;;;22.65;4.80;;;;;;;;;;4800547;29;20085;-95
2023/12/20 06:31:03;;;;;;;25.83;4.53;;;;;;;;;;4791714;29;20116;-94
2023/12/20 06:33:30;;;;;;;12.45;4.63;;;;;;;;;;4791681;29;20086;-92
2023/12/20 06:35:57;;;;;;;28.00;4.65;;;;;;;;;;4775345;29;20149;-95
2023/12/20 06:38:23;;;;;;;25.10;4.90;;;;;;;;;;4777746;29;20059;-95
2023/12/20 06:40:49;;;;;;;22.55;4.43;;;;;;;;;;4777831;29;20132;-95
2023/12/20 06:43:15;;;;;;;18.70;5.28;;;;;;;;;;4800402;29;20066;-95
2023/12/20 06:45:41;;;;;;;21.92;5.60;;;;;;;;;;4780097;29;20074;-96
2023/12/20 06:48:07;;;;;;;18.83;4.40;;;;;;;;;;4777617;29;20058;-94
2023/12/20 06:50:34;;;;;;;15.75;3.63;;;;;;;;;;4769005;29;20062;-94
2023/12/20 06:53:06;;;;;;;38.22;5.20;;;;;;;;;;4769510;29;20161;-94
2023/12/20 06:55:32;;;;;;;20.42;4.40;;;;;;;;;;4778819;29;20149;-95
2023/12/20 06:57:58;;;;;;;16.75;4.75;;;;;;;;;;4762546;29;20051;-94
2023/12/20 07:00:24;;;;;;;21.00;4.53;;;;;;;;;;4772764;29;20196;-94
2023/12/20 07:02:50;;;;;;;20.23;4.10;;;;;;;;;;4785825;30;20062;-94
2023/12/20 07:05:19;;;;;;;9.10;3.75;;;;;;;;;;4770732;29;20059;-95
2023/12/20 07:07:46;;;;;;;25.63;4.00;;;;;;;;;;4774356;30;20047;-95
2023/12/20 07:10:12;;;;;;;23.75;4.68;;;;;;;;;;4754766;29;20059;-94
2023/12/20 07:12:38;;;;;;;19.67;4.45;;;;;;;;;;4768106;29;20497;-94
2023/12/20 07:15:05;;;;;;;16.25;4.35;;;;;;;;;;4777268;29;20055;-95
2023/12/20 07:17:33;;;;;;;24.27;4.47;;;;;;;;;;4764215;29;20083;-95
2023/12/20 07:20:03;;;;;;;21.83;4.60;;;;;;;;;;4767172;29;20089;-94
2023/12/20 07:22:29;;;;;;;26.77;6.00;;;;;;;;;;4783783;29;20057;-96
2023/12/20 07:24:55;;;;;;;14.93;4.25;;;;;;;;;;4770322;29;20061;-94
2023/12/20 07:27:21;;;;;;;20.20;4.50;;;;;;;;;;4791262;29;20047;-96
2023/12/20 07:29:47;;;;;;;22.33;4.88;;;;;;;;;;4786797;29;20152;-94
2023/12/20 07:33:16;;;;;;;20.83;5.60;;;;;;;;;;4778145;29;20047;-95
2023/12/20 07:35:25;;;;;;;13.88;5.55;;;;;;;;;;4787323;29;20148;-94
2023/12/20 07:37:51;;;;;;;24.60;5.63;;;;;;;;;;4791537;29;20589;-94
2023/12/20 07:40:17;;;;;;;16.20;3.75;;;;;;;;;;4761856;29;20046;-93
2023/12/20 07:42:43;;;;;;;22.77;4.60;;;;;;;;;;4770709;30;20100;-94
2023/12/20 07:48:41;;;;;;;13.57;3.08;;;;;;;;;;4796323;29;20421;-94
2023/12/20 07:51:09;;;;;;;15.27;5.22;;;;;;;;;;4776804;29;20049;-93
2023/12/20 07:53:35;;;;;;;11.15;3.08;;;;;;;;;;4776653;29;20400;-96
2023/12/20 07:56:01;;;;;;;18.42;3.75;;;;;;;;;;4776147;29;20141;-94
2023/12/20 07:58:29;;;;;;;19.75;4.90;;;;;;;;;;4774763;29;20124;-95
2023/12/20 08:00:56;;;;;;;18.77;4.82;;;;;;;;;;4761762;29;20058;-95
2023/12/20 08:03:22;;;;;;;18.02;4.72;;;;;;;;;;4768593;29;20057;-95
2023/12/20 08:05:48;;;;;;;31.25;6.20;;;;;;;;;;4774548;29;20059;-91
2023/12/20 08:08:40;;;;;;;20.92;4.88;;;;;;;;;;4768723;29;20050;-93
2023/12/20 08:11:09;;;;;;;11.80;3.72;;;;;;;;;;4785300;29;20137;-94
2023/12/20 08:13:35;;;;;;;14.48;4.38;;;;;;;;;;4775438;29;20519;-94
2023/12/20 08:16:04;;;;;;;11.55;3.47;;;;;;;;;;4774931;29;20066;-91
2023/12/20 08:18:30;;;;;;;28.70;3.42;;;;;;;;;;4781998;30;20110;-94
2023/12/20 08:20:57;;;;;;;9.02;3.45;;;;;;;;;;4775503;29;20065;-96
2023/12/20 08:23:23;;;;;;;12.80;2.78;;;;;;;;;;4796249;29;20058;-96
2023/12/20 08:25:49;;;;;;;22.92;3.85;;;;;;;;;;4782358;29;20066;-96
2023/12/20 08:28:21;;;;;;;12.13;3.40;;;;;;;;;;4780518;29;20097;-96
2023/12/20 08:30:47;;;;;;;17.40;3.28;;;;;;;;;;4778507;29;20144;-96
2023/12/20 08:33:13;;;;;;;19.08;4.10;;;;;;;;;;4784788;29;20138;-93
2023/12/20 08:35:43;;;;;;;8.82;3.60;;;;;;;;;;4790950;29;20359;-91
2023/12/20 08:38:09;;;;;;;13.05;3.58;;;;;;;;;;4789718;30;20058;-96
2023/12/20 08:40:35;;;;;;;13.57;3.42;;;;;;;;;;4784551;29;20051;-96
2023/12/20 08:43:02;;;;;;;12.02;3.20;;;;;;;;;;4778596;30;20063;-96
2023/12/20 08:45:31;;;;;;;5.45;2.38;;;;;;;;;;4772027;29;20058;-95
2023/12/20 08:47:57;;;;;;;15.27;3.40;;;;;;;;;;4774545;29;20054;-94
2023/12/20 08:50:23;;;;;;;10.90;3.63;;;;;;;;;;4774598;29;20505;-95
2023/12/20 08:52:49;;;;;;;10.65;2.78;;;;;;;;;;4775406;29;20050;-95
2023/12/20 08:55:16;;;;;;;5.25;1.77;;;;;;;;;;4774739;29;20185;-95
2023/12/20 08:57:42;;;;;;;10.20;2.35;;;;;;;;;;4778770;29;20050;-96
2023/12/20 09:00:08;;;;;;;11.25;2.15;;;;;;;;;;4779937;29;20062;-96
2023/12/20 09:02:37;;;;;;;7.78;1.63;;;;;;;;;;4782022;29;20108;-96
2023/12/20 09:05:04;;;;;;;9.00;2.40;;;;;;;;;;4774817;29;20058;-95
2023/12/20 09:10:02;;;;;;;5.18;1.67;;;;;;;;;;4840416;24;20116;-95
2023/12/20 09:12:28;;;;;;;6.95;1.50;;;;;;;;;;4745168;30;20055;-92
2023/12/20 09:14:55;;;;;;;5.35;2.00;;;;;;;;;;4756921;30;20046;-96
2023/12/20 09:17:22;;;;;;;3.47;1.42;;;;;;;;;;4766684;29;20055;-95
2023/12/20 09:19:49;;;;;;;6.95;1.98;;;;;;;;;;4752014;29;20050;-95
2023/12/20 09:22:15;;;;;;;7.15;1.77;;;;;;;;;;4755564;30;20059;-95
2023/12/20 09:24:41;;;;;;;2.20;1.48;;;;;;;;;;4740211;30;20052;-95
2023/12/20 09:27:07;;;;;;;2.42;1.00;;;;;;;;;;4741485;30;20104;-92
2023/12/20 09:29:33;;;;;;;8.43;1.25;;;;;;;;;;4754590;29;20151;-92
2023/12/20 09:31:59;;;;;;;7.30;1.63;;;;;;;;;;4757585;29;20046;-96
2023/12/20 09:34:26;;;;;;;4.93;1.48;;;;;;;;;;4774532;30;20134;-94
2023/12/20 09:36:53;;;;;;;7.57;1.40;;;;;;;;;;4751132;30;20083;-95
2023/12/20 09:39:25;;;;;;;5.80;3.17;;;;;;;;;;4754345;30;20058;-95
2023/12/20 09:42:04;;;;;;;6.18;1.40;;;;;;;;;;4741602;30;20056;-93
2023/12/20 09:44:31;;;;;;;5.35;1.65;;;;;;;;;;4756313;30;20055;-95
2023/12/20 09:46:57;;;;;;;8.90;2.28;;;;;;;;;;4756412;29;20065;-94
2023/12/20 09:49:24;;;;;;;9.80;2.40;;;;;;;;;;4754628;30;20147;-92
2023/12/20 09:51:54;;;;;;;6.25;2.10;;;;;;;;;;4754431;30;20138;-95
2023/12/20 09:54:21;;;;;;;5.85;2.60;;;;;;;;;;4737803;30;20092;-93
2023/12/20 09:56:47;;;;;;;12.90;1.88;;;;;;;;;;4740443;30;20063;-95
2023/12/20 09:59:14;;;;;;;12.63;2.97;;;;;;;;;;4728414;30;20060;-94
2023/12/20 10:01:41;;;;;;;8.68;1.92;;;;;;;;;;4746959;30;20087;-92
2023/12/20 10:04:08;;;;;;;5.45;1.60;;;;;;;;;;4741531;30;20076;-95
2023/12/20 10:06:42;;;;;;;3.30;1.95;;;;;;;;;;4741507;30;20052;-93
2023/12/20 10:09:08;;;;;;;7.50;2.30;;;;;;;;;;4757750;30;20056;-94
2023/12/20 10:11:38;;;;;;;10.07;2.63;;;;;;;;;;4721635;30;20145;-95
2023/12/20 10:14:04;;;;;;;8.13;2.00;;;;;;;;;;4746661;30;20118;-95
2023/12/20 10:16:31;;;;;;;6.93;2.53;;;;;;;;;;4742534;30;20075;-94
2023/12/20 10:18:57;;;;;;;7.35;2.33;;;;;;;;;;4740957;30;20427;-96
2023/12/20 10:21:26;;;;;;;14.73;2.40;;;;;;;;;;4741939;30;20072;-95
2023/12/20 10:23:52;;;;;;;10.25;2.42;;;;;;;;;;4756323;30;20099;-95
2023/12/20 10:26:27;;;;;;;7.97;2.65;;;;;;;;;;4755568;30;20055;-95
2023/12/20 10:28:54;;;;;;;10.20;2.90;;;;;;;;;;4738834;30;20074;-94
2023/12/20 10:31:46;;;;;;;6.88;2.35;;;;;;;;;;4753577;30;20139;-95
2023/12/20 10:34:12;;;;;;;13.00;2.67;;;;;;;;;;4739208;30;20055;-91
2023/12/20 10:36:38;;;;;;;11.48;2.30;;;;;;;;;;4729957;30;20047;-94
2023/12/20 10:39:07;;;;;;;9.70;2.17;;;;;;;;;;4747108;30;20059;-91
2023/12/20 10:41:35;;;;;;;14.50;2.55;;;;;;;;;;4768045;30;20137;-92
2023/12/20 10:44:02;;;;;;;9.13;2.33;;;;;;;;;;4755463;30;20119;-91
2023/12/20 10:46:29;;;;;;;12.95;2.83;;;;;;;;;;4740169;30;20075;-89
2023/12/20 10:48:56;;;;;;;13.27;2.67;;;;;;;;;;4756248;30;20098;-90
2023/12/20 10:51:23;;;;;;;12.48;4.22;;;;;;;;;;4753734;30;20052;-90
2023/12/20 10:53:50;;;;;;;11.10;2.78;;;;;;;;;;4756111;30;20062;-91
2023/12/20 10:56:17;;;;;;;6.13;2.20;;;;;;;;;;4781702;30;20132;-95
2023/12/20 10:58:44;;;;;;;12.85;2.47;;;;;;;;;;4740374;30;20130;-95
2023/12/20 11:01:11;;;;;;;14.43;3.95;;;;;;;;;;4741579;30;20055;-91
2023/12/20 11:03:38;;;;;;;8.50;2.63;;;;;;;;;;4743412;30;20052;-91
2023/12/20 11:06:09;;;;;;;13.85;2.55;;;;;;;;;;4741502;30;20059;-91
2023/12/20 11:08:44;;;;;;;21.05;3.90;;;;;;;;;;4753460;30;20068;-93
2023/12/20 11:11:19;;;;;;;12.85;3.17;;;;;;;;;;4742282;30;20139;-90
2023/12/20 11:13:56;;;;;;;13.20;2.33;;;;;;;;;;4739435;30;20048;-93
2023/12/20 11:16:22;;;;;;;15.75;2.97;;;;;;;;;;4743714;30;20052;-96
2023/12/20 11:18:51;;;;;;;7.15;3.10;;;;;;;;;;4742953;30;20110;-95
2023/12/20 11:21:17;;;;;;;10.52;3.15;;;;;;;;;;4742230;30;20056;-94
2023/12/20 11:23:43;;;;;;;13.60;2.90;;;;;;;;;;4741975;30;20055;-92
2023/12/20 11:26:09;;;;;;;8.98;3.42;;;;;;;;;;4741297;30;20191;-89
2023/12/20 11:28:35;;;;;;;23.40;3.55;;;;;;;;;;4743652;30;20105;-91
2023/12/20 11:31:02;;;;;;;14.15;3.65;;;;;;;;;;4760380;30;20059;-91
2023/12/20 11:33:36;;;;;;;9.95;2.92;;;;;;;;;;4739883;30;20056;-89
2023/12/20 11:36:02;;;;;;;;;;;;;;;;;;4743922;30;20139;-89
2023/12/20 11:38:37;;;;;;;14.48;3.78;;;;;;;;;;4744552;30;20016;-93
2023/12/20 11:41:06;;;;;;;13.90;3.22;;;;;;;;;;4753297;30;20099;-95
2023/12/20 11:43:36;;;;;;;14.57;4.00;;;;;;;;;;4740273;30;20163;-94
2023/12/20 11:46:09;;;;;;;11.73;2.60;;;;;;;;;;4754312;30;20138;-94
2023/12/20 11:48:36;;;;;;;9.85;2.75;;;;;;;;;;4742482;30;20051;-95
2023/12/20 11:51:03;;;;;;;20.83;3.97;;;;;;;;;;4742230;30;20112;-94
2023/12/20 11:53:31;;;;;;;11.40;3.00;;;;;;;;;;4742393;30;20961;-93
2023/12/20 11:55:58;;;;;;;9.65;3.22;;;;;;;;;;4755826;30;20067;-95
2023/12/20 11:58:24;;;;;;;8.80;2.65;;;;;;;;;;4740886;30;20067;-94
2023/12/20 12:00:51;;;;;;;14.50;2.80;;;;;;;;;;4727208;30;20147;-95
2023/12/20 12:03:17;;;;;;;8.68;2.88;;;;;;;;;;4730969;30;20505;-92
2023/12/20 12:05:44;;;;;;;7.75;2.70;;;;;;;;;;4741882;30;20127;-93
2023/12/20 12:08:10;;;;;;;14.60;3.30;;;;;;;;;;4741716;30;20063;-89
2023/12/20 12:10:36;;;;;;;13.85;2.90;;;;;;;;;;4755178;30;20107;-92
2023/12/20 12:13:02;;;;;;;10.50;3.03;;;;;;;;;;4748335;30;20055;-91
2023/12/20 12:15:28;;;;;;;11.68;2.92;;;;;;;;;;4741666;30;20091;-89
2023/12/20 12:36:11;;;;;;;13.45;2.70;;;;;;;;;;4776339;30;20051;-92
2023/12/20 13:10:47;;;;;;;12.60;2.75;;;;;;;;;;5858580;24;20984;31
2023/12/20 13:13:29;;;;;;;10.27;2.90;;;;;;;;;;4774198;29;20090;-95
2023/12/20 13:42:56;;;;;;;9.93;1.67;;;;;;;;;;4809135;29;20077;-93
2023/12/20 13:45:45;;;;;;;7.47;2.08;;;;;;;;;;4753322;30;20102;-94
2023/12/20 13:48:14;;;;;;;2.33;1.42;;;;;;;;;;4759858;30;20120;-90
2023/12/20 13:50:41;;;;;;;5.15;2.20;;;;;;;;;;4742798;30;20064;-91
2023/12/20 13:56:25;;;;;;;5.85;1.80;;;;;;;;;;4738616;30;20091;-91
2023/12/20 13:58:54;;;;;;;3.72;1.75;;;;;;;;;;4751574;30;20063;-90
2023/12/20 14:01:20;;;;;;;7.63;1.65;;;;;;;;;;4754797;30;20573;-90
2023/12/20 14:03:46;;;;;;;6.88;1.85;;;;;;;;;;4769025;30;20090;-90
2023/12/20 14:06:14;;;;;;;6.97;1.73;;;;;;;;;;4756485;30;20212;-93
2023/12/20 14:08:42;;;;;;;2.83;1.23;;;;;;;;;;4755340;30;20058;-95
2023/12/20 14:11:08;;;;;;;4.85;1.75;;;;;;;;;;4769725;30;20060;-96
2023/12/20 14:13:35;;;;;;;8.10;1.90;;;;;;;;;;4741482;30;20097;-94
2023/12/20 14:16:03;;;;;;;4.68;1.60;;;;;;;;;;4750484;29;20055;-95
2023/12/20 14:18:43;;;;;;;3.78;1.65;;;;;;;;;;4748399;29;20059;-95
2023/12/20 14:21:10;;;;;;;3.75;1.35;;;;;;;;;;4781919;29;20047;-96
2023/12/20 14:23:36;;;;;;;7.03;1.77;;;;;;;;;;4759198;29;20065;-94
2023/12/20 14:26:03;;;;;;;5.63;1.60;;;;;;;;;;4775051;29;20083;-94
2023/12/20 14:28:29;;;;;;;6.63;1.42;;;;;;;;;;4757286;29;20062;-96
2023/12/20 14:30:56;;;;;;;3.70;1.77;;;;;;;;;;4762167;29;20073;-95
2023/12/20 14:33:25;;;;;;;5.32;1.58;;;;;;;;;;4760342;29;20056;-91
2023/12/20 14:35:52;;;;;;;7.75;1.83;;;;;;;;;;4766452;29;20051;-92
2023/12/20 14:38:19;;;;;;;2.47;1.50;;;;;;;;;;4763879;29;20102;-93
2023/12/20 14:40:45;;;;;;;12.23;1.88;;;;;;;;;;4766368;29;20048;-92
2023/12/20 14:43:11;;;;;;;6.43;1.40;;;;;;;;;;4756331;29;21022;-96
2023/12/20 14:45:38;;;;;;;7.78;2.25;;;;;;;;;;4744645;29;20062;-95
2023/12/20 14:48:04;;;;;;;7.45;2.03;;;;;;;;;;4776299;29;20137;-94
2023/12/20 14:50:30;;;;;;;6.32;1.70;;;;;;;;;;4765470;29;20181;-95
2023/12/20 14:52:57;;;;;;;6.32;2.03;;;;;;;;;;4751130;29;20085;-95
2023/12/20 14:55:23;;;;;;;14.50;2.95;;;;;;;;;;4744113;29;20108;-91
2023/12/20 14:57:49;;;;;;;6.93;2.20;;;;;;;;;;4754066;29;20063;-95
2023/12/20 15:00:19;;;;;;;9.98;2.13;;;;;;;;;;4767062;29;20062;-94
2023/12/20 15:02:46;;;;;;;6.30;1.80;;;;;;;;;;4768572;29;20051;-96
2023/12/20 15:05:12;;;;;;;12.43;2.15;;;;;;;;;;4757888;29;20396;-94
2023/12/20 15:07:38;;;;;;;7.45;2.10;;;;;;;;;;4755367;29;20078;-95
2023/12/20 15:10:04;;;;;;;6.80;2.22;;;;;;;;;;4755899;29;20445;-91
2023/12/20 15:12:33;;;;;;;5.85;1.92;;;;;;;;;;4759959;29;20082;-96
2023/12/20 15:15:00;;;;;;;7.82;2.05;;;;;;;;;;4768647;29;20052;-94
2023/12/20 15:17:26;;;;;;;2.70;1.55;;;;;;;;;;4770002;29;20153;-93
2023/12/20 15:19:52;;;;;;;8.00;2.30;;;;;;;;;;4767885;29;20061;-93
2023/12/20 15:22:19;;;;;;;4.85;1.85;;;;;;;;;;4743395;29;20066;-93
2023/12/20 15:24:46;;;;;;;5.60;1.85;;;;;;;;;;4770191;29;20123;-94
2023/12/20 15:27:12;;;;;;;8.32;2.10;;;;;;;;;;4770950;29;20090;-91
2023/12/20 15:29:38;;;;;;;12.82;2.83;;;;;;;;;;4770406;29;20054;-93
2023/12/20 15:32:05;;;;;;;6.25;2.22;;;;;;;;;;4771480;29;20150;-95
2023/12/20 15:34:31;;;;;;;6.78;2.33;;;;;;;;;;4756216;29;20141;-93
2023/12/20 15:36:58;;;;;;;4.55;2.25;;;;;;;;;;4756856;29;20051;-94
2023/12/20 15:39:24;;;;;;;13.60;2.25;;;;;;;;;;4767159;29;20060;-96
2023/12/20 15:41:50;;;;;;;6.38;2.08;;;;;;;;;;4756636;29;20528;-96
2023/12/20 15:44:16;;;;;;;7.80;2.03;;;;;;;;;;4757783;29;20147;-94
2023/12/20 15:46:42;;;;;;;11.02;2.85;;;;;;;;;;4770059;29;20050;-96
2023/12/20 15:49:10;;;;;;;11.68;3.00;;;;;;;;;;4768302;29;20057;-94
2023/12/20 15:51:36;;;;;;;9.07;3.25;;;;;;;;;;4761365;29;20058;-93
2023/12/20 15:54:06;;;;;;;8.73;2.50;;;;;;;;;;4768006;29;20059;-96
2023/12/20 15:56:32;;;;;;;17.48;3.03;;;;;;;;;;4758024;29;20075;-96
2023/12/20 15:58:59;;;;;;;11.52;3.10;;;;;;;;;;4742406;29;20055;-92
2023/12/20 16:01:25;;;;;;;9.52;3.08;;;;;;;;;;4765979;29;20146;-94
2023/12/20 16:03:51;;;;;;;10.65;2.85;;;;;;;;;;4762060;29;20111;-95
2023/12/20 16:06:17;;;;;;;18.02;3.85;;;;;;;;;;4754635;29;20054;-91
2023/12/20 16:08:44;;;;;;;19.58;5.07;;;;;;;;;;4746601;29;20365;-95
2023/12/20 16:11:10;;;;;;;14.13;4.03;;;;;;;;;;4770288;29;20147;-95
2023/12/20 16:13:36;;;;;;;21.17;3.85;;;;;;;;;;4770001;29;20457;-96
2023/12/20 16:16:02;;;;;;;9.13;2.85;;;;;;;;;;4767436;29;20059;-91
2023/12/20 16:18:29;;;;;;;17.65;3.35;;;;;;;;;;4770847;29;20064;-94
2023/12/20 16:20:57;;;;;;;15.55;3.42;;;;;;;;;;4767941;29;20063;-96
2023/12/20 16:23:23;;;;;;;14.30;3.92;;;;;;;;;;4755023;29;20070;-96
2023/12/20 16:25:49;;;;;;;17.08;3.97;;;;;;;;;;4758305;29;20714;-96
2023/12/20 16:28:15;;;;;;;12.00;3.88;;;;;;;;;;4754545;29;20088;-92
2023/12/20 16:30:41;;;;;;;16.17;4.05;;;;;;;;;;4772849;29;20097;-96
2023/12/20 16:33:07;;;;;;;9.65;2.72;;;;;;;;;;4770099;29;20070;-95
2023/12/20 16:35:33;;;;;;;18.02;3.42;;;;;;;;;;4770051;29;20301;-96
2023/12/20 16:37:59;;;;;;;10.73;2.97;;;;;;;;;;4744305;29;20069;-96
2023/12/20 16:40:25;;;;;;;31.75;4.00;;;;;;;;;;4748971;29;20086;-90
2023/12/20 16:42:52;;;;;;;13.75;3.30;;;;;;;;;;4767513;29;20461;-96
2023/12/20 16:45:19;;;;;;;10.10;3.35;;;;;;;;;;4766635;29;20048;-95
2023/12/20 16:47:45;;;;;;;13.52;3.92;;;;;;;;;;4762935;29;20046;-96
2023/12/20 16:50:11;;;;;;;13.95;3.72;;;;;;;;;;4758306;29;20508;-93
2023/12/20 16:52:37;;;;;;;12.68;4.03;;;;;;;;;;4750863;29;20082;-95
2023/12/20 16:55:09;;;;;;;6.32;2.60;;;;;;;;;;4761723;29;20595;-95
2023/12/20 16:57:35;;;;;;;15.73;3.65;;;;;;;;;;4759786;29;20063;-94
2023/12/20 17:00:02;;;;;;;9.63;4.10;;;;;;;;;;4750437;29;20432;-94
2023/12/20 17:02:28;;;;;;;15.30;5.22;;;;;;;;;;4752367;29;20055;-95
2023/12/20 17:04:54;;;;;;;13.60;3.40;;;;;;;;;;4759383;29;20146;-96
2023/12/20 17:07:20;;;;;;;12.68;3.78;;;;;;;;;;4763806;29;20058;-93
2023/12/20 17:09:47;;;;;;;13.88;4.10;;;;;;;;;;4764993;29;20501;-92
2023/12/20 17:12:13;;;;;;;11.38;3.80;;;;;;;;;;4724797;30;20608;-95
2023/12/20 17:14:40;;;;;;;15.50;4.25;;;;;;;;;;4738770;30;20069;-95
2023/12/20 17:17:06;;;;;;;16.60;3.75;;;;;;;;;;4739847;30;20120;-95
2023/12/20 17:19:32;;;;;;;17.55;4.18;;;;;;;;;;4742970;30;20058;-94
2023/12/20 17:21:58;;;;;;;18.48;4.65;;;;;;;;;;4719445;30;21395;-95
2023/12/20 17:24:27;;;;;;;14.27;3.67;;;;;;;;;;4750602;30;20066;-93
2023/12/20 17:26:53;;;;;;;21.10;4.75;;;;;;;;;;4734140;30;20058;-95
2023/12/20 17:29:19;;;;;;;12.90;4.07;;;;;;;;;;4745909;30;20146;-94
2023/12/20 17:31:45;;;;;;;13.05;3.97;;;;;;;;;;4739577;30;20130;-96
2023/12/20 17:34:11;;;;;;;5.32;2.58;;;;;;;;;;4740685;30;20055;-95
2023/12/20 17:36:38;;;;;;;12.18;4.22;;;;;;;;;;4755842;30;20076;-95
2023/12/20 17:39:04;;;;;;;10.93;3.10;;;;;;;;;;4725436;30;20524;-92
2023/12/20 17:41:32;;;;;;;14.20;3.35;;;;;;;;;;4748402;30;20505;-96
2023/12/20 17:43:58;;;;;;;10.50;3.33;;;;;;;;;;4755506;30;20063;-96
2023/12/20 17:46:24;;;;;;;9.95;3.05;;;;;;;;;;4747994;30;20064;-96
2023/12/20 17:48:51;;;;;;;6.88;2.50;;;;;;;;;;4735450;30;20060;-93
2023/12/20 17:51:17;;;;;;;5.15;2.45;;;;;;;;;;4754424;30;20087;-91
2023/12/20 17:53:43;;;;;;;7.88;2.35;;;;;;;;;;4747285;30;20428;-93
2023/12/20 17:56:09;;;;;;;5.50;2.20;;;;;;;;;;4753914;30;20138;-94
2023/12/20 17:58:37;;;;;;;12.70;2.30;;;;;;;;;;4753881;30;20067;-95
2023/12/20 18:01:03;;;;;;;5.22;2.13;;;;;;;;;;4745252;30;20083;-95
2023/12/20 18:03:29;;;;;;;6.47;2.30;;;;;;;;;;4762651;30;20175;-95
2023/12/20 18:05:55;;;;;;;7.60;2.13;;;;;;;;;;4739445;30;20047;-95
2023/12/20 18:08:22;;;;;;;3.83;2.28;;;;;;;;;;4754722;30;20047;-95
2023/12/20 18:10:48;;;;;;;4.60;2.08;;;;;;;;;;4760209;30;20090;-94
2023/12/20 18:13:15;;;;;;;3.10;1.70;;;;;;;;;;4751980;29;20058;-95
2023/12/20 18:15:41;;;;;;;1.83;1.63;;;;;;;;;;4763910;29;20138;-94
2023/12/20 18:18:11;;;;;;;3.67;1.95;;;;;;;;;;4760618;29;20134;-94
2023/12/20 18:20:38;;;;;;;2.63;1.58;;;;;;;;;;4760879;29;20146;-95
2023/12/20 18:23:05;;;;;;;5.18;1.58;;;;;;;;;;4765861;29;20686;-94
2023/12/20 18:25:31;;;;;;;1.80;1.70;;;;;;;;;;4776813;29;20155;-93
2023/12/20 18:27:57;;;;;;;3.30;1.60;;;;;;;;;;4761907;29;20054;-93
2023/12/20 18:30:24;;;;;;;1.58;1.48;;;;;;;;;;4767296;29;20125;-94
2023/12/20 18:32:50;;;;;;;3.33;1.67;;;;;;;;;;4749834;29;20067;-94
2023/12/20 18:35:17;;;;;;;4.57;1.88;;;;;;;;;;4770606;29;20055;-94
2023/12/20 18:37:43;;;;;;;1.45;1.35;;;;;;;;;;4777959;29;20497;-95
2023/12/20 18:40:10;;;;;;;2.20;1.60;;;;;;;;;;4763155;29;20055;-96
2023/12/20 18:42:36;;;;;;;2.58;2.05;;;;;;;;;;4752783;29;20059;-95
2023/12/20 18:45:06;;;;;;;3.33;1.55;;;;;;;;;;4769122;29;20097;-96